sensor_id;sensor_type;location;lat;lon;timestamp;pressure;altitude;pressure_sealevel;temperature;humidity
57900;BME280;60605;53.716;19.940;2023-02-21T00:00:59;98735.99;;;6.73;95.06
57900;BME280;60605;53.716;19.940;2023-02-21T00:06:21;98738.42;;;6.74;94.58
57900;BME280;60605;53.716;19.940;2023-02-21T00:11:43;98733.34;;;6.77;93.99
57900;BME280;60605;53.716;19.940;2023-02-21T00:17:05;98735.10;;;6.80;93.67
57900;BME280;60605;53.716;19.940;2023-02-21T00:22:27;98730.77;;;6.80;93.43
57900;BME280;60605;53.716;19.940;2023-02-21T00:27:49;98726.45;;;6.79;93.41
57900;BME280;60605;53.716;19.940;2023-02-21T00:33:11;98731.78;;;6.78;92.88
57900;BME280;60605;53.716;19.940;2023-02-21T00:38:32;98736.97;;;6.77;92.70
57900;BME280;60605;53.716;19.940;2023-02-21T00:43:57;98736.93;;;6.76;92.68
57900;BME280;60605;53.716;19.940;2023-02-21T00:49:19;98738.14;;;6.75;92.36
57900;BME280;60605;53.716;19.940;2023-02-21T00:54:41;98738.00;;;6.75;92.27
57900;BME280;60605;53.716;19.940;2023-02-21T01:00:05;98733.64;;;6.74;92.52
57900;BME280;60605;53.716;19.940;2023-02-21T01:05:28;98741.29;;;6.72;92.55
57900;BME280;60605;53.716;19.940;2023-02-21T01:10:50;98741.81;;;6.70;92.48
57900;BME280;60605;53.716;19.940;2023-02-21T01:16:11;98732.56;;;6.69;92.49
57900;BME280;60605;53.716;19.940;2023-02-21T01:21:33;98724.58;;;6.67;92.40
57900;BME280;60605;53.716;19.940;2023-02-21T01:26:55;98721.95;;;6.65;92.54
57900;BME280;60605;53.716;19.940;2023-02-21T01:32:16;98724.87;;;6.63;92.56
57900;BME280;60605;53.716;19.940;2023-02-21T01:37:40;98726.67;;;6.60;93.00
57900;BME280;60605;53.716;19.940;2023-02-21T01:43:18;98723.25;;;6.55;93.39
57900;BME280;60605;53.716;19.940;2023-02-21T01:48:40;98725.13;;;6.49;93.89
57900;BME280;60605;53.716;19.940;2023-02-21T01:54:03;98724.87;;;6.44;94.32
57900;BME280;60605;53.716;19.940;2023-02-21T01:59:25;98727.13;;;6.38;94.74
57900;BME280;60605;53.716;19.940;2023-02-21T02:04:48;98723.27;;;6.32;95.31
57900;BME280;60605;53.716;19.940;2023-02-21T02:10:13;98718.25;;;6.28;95.69
57900;BME280;60605;53.716;19.940;2023-02-21T02:16:06;98714.46;;;6.27;95.92
57900;BME280;60605;53.716;19.940;2023-02-21T02:37:51;98701.81;;;6.18;96.95
57900;BME280;60605;53.716;19.940;2023-02-21T02:43:02;98693.58;;;6.17;96.79
57900;BME280;60605;53.716;19.940;2023-02-21T02:53:17;98707.90;;;6.17;96.23
57900;BME280;60605;53.716;19.940;2023-02-21T02:58:24;98705.06;;;6.19;95.92
57900;BME280;60605;53.716;19.940;2023-02-21T03:14:12;98709.00;;;6.23;94.69
57900;BME280;60605;53.716;19.940;2023-02-21T03:19:20;98708.98;;;6.25;94.22
57900;BME280;60605;53.716;19.940;2023-02-21T03:24:27;98706.52;;;6.27;93.64
57900;BME280;60605;53.716;19.940;2023-02-21T03:29:32;98717.92;;;6.26;93.82
57900;BME280;60605;53.716;19.940;2023-02-21T03:34:41;98723.73;;;6.23;94.34
57900;BME280;60605;53.716;19.940;2023-02-21T03:39:45;98728.10;;;6.17;94.78
57900;BME280;60605;53.716;19.940;2023-02-21T03:44:48;98727.02;;;6.13;94.86
57900;BME280;60605;53.716;19.940;2023-02-21T03:49:51;98734.20;;;6.10;94.83
57900;BME280;60605;53.716;19.940;2023-02-21T03:54:54;98738.82;;;6.10;94.91
57900;BME280;60605;53.716;19.940;2023-02-21T03:59:57;98758.69;;;6.08;95.30
57900;BME280;60605;53.716;19.940;2023-02-21T04:05:00;98766.13;;;6.03;96.18
57900;BME280;60605;53.716;19.940;2023-02-21T04:10:04;98764.50;;;5.93;97.26
57900;BME280;60605;53.716;19.940;2023-02-21T04:15:09;98761.33;;;5.83;97.99
57900;BME280;60605;53.716;19.940;2023-02-21T04:20:13;98756.13;;;5.75;98.41
57900;BME280;60605;53.716;19.940;2023-02-21T04:25:17;98755.48;;;5.72;98.68
57900;BME280;60605;53.716;19.940;2023-02-21T04:30:20;98748.73;;;5.70;98.90
57900;BME280;60605;53.716;19.940;2023-02-21T04:35:23;98747.14;;;5.70;98.90
57900;BME280;60605;53.716;19.940;2023-02-21T04:40:26;98754.11;;;5.71;98.63
57900;BME280;60605;53.716;19.940;2023-02-21T04:45:30;98763.89;;;5.76;98.22
57900;BME280;60605;53.716;19.940;2023-02-21T04:50:33;98765.95;;;5.78;98.24
57900;BME280;60605;53.716;19.940;2023-02-21T04:55:36;98764.13;;;5.74;98.72
57900;BME280;60605;53.716;19.940;2023-02-21T05:00:40;98761.21;;;5.63;99.41
57900;BME280;60605;53.716;19.940;2023-02-21T05:05:43;98765.05;;;5.51;99.93
57900;BME280;60605;53.716;19.940;2023-02-21T05:10:46;98762.08;;;5.42;100.00
57900;BME280;60605;53.716;19.940;2023-02-21T05:15:49;98760.27;;;5.34;100.00
57900;BME280;60605;53.716;19.940;2023-02-21T05:20:52;98753.86;;;5.27;100.00
57900;BME280;60605;53.716;19.940;2023-02-21T05:25:55;98754.38;;;5.21;100.00
57900;BME280;60605;53.716;19.940;2023-02-21T05:30:59;98751.29;;;5.15;100.00
57900;BME280;60605;53.716;19.940;2023-02-21T05:36:14;98754.64;;;5.10;100.00
57900;BME280;60605;53.716;19.940;2023-02-21T05:41:20;98766.02;;;5.06;100.00
57900;BME280;60605;53.716;19.940;2023-02-21T05:46:24;98775.02;;;5.03;100.00
57900;BME280;60605;53.716;19.940;2023-02-21T05:51:40;98784.26;;;4.99;100.00
57900;BME280;60605;53.716;19.940;2023-02-21T05:56:46;98786.85;;;4.94;100.00
57900;BME280;60605;53.716;19.940;2023-02-21T06:01:49;98793.63;;;4.90;100.00
57900;BME280;60605;53.716;19.940;2023-02-21T06:06:53;98803.48;;;4.87;100.00
57900;BME280;60605;53.716;19.940;2023-02-21T06:11:57;98813.64;;;4.85;100.00
57900;BME280;60605;53.716;19.940;2023-02-21T06:17:00;98826.06;;;4.82;100.00
57900;BME280;60605;53.716;19.940;2023-02-21T06:22:05;98831.96;;;4.82;100.00
57900;BME280;60605;53.716;19.940;2023-02-21T06:27:08;98841.40;;;4.81;100.00
57900;BME280;60605;53.716;19.940;2023-02-21T06:32:11;98845.89;;;4.80;100.00
57900;BME280;60605;53.716;19.940;2023-02-21T06:37:14;98853.70;;;4.80;100.00
57900;BME280;60605;53.716;19.940;2023-02-21T06:42:20;98859.88;;;4.82;100.00
57900;BME280;60605;53.716;19.940;2023-02-21T06:47:24;98869.33;;;4.85;100.00
57900;BME280;60605;53.716;19.940;2023-02-21T06:52:29;98872.67;;;4.87;100.00
57900;BME280;60605;53.716;19.940;2023-02-21T06:57:33;98881.79;;;4.89;100.00
57900;BME280;60605;53.716;19.940;2023-02-21T07:02:36;98894.33;;;4.93;100.00
57900;BME280;60605;53.716;19.940;2023-02-21T07:07:41;98906.73;;;4.96;100.00
57900;BME280;60605;53.716;19.940;2023-02-21T07:12:45;98918.55;;;4.99;100.00
57900;BME280;60605;53.716;19.940;2023-02-21T07:17:48;98933.25;;;5.02;100.00
57900;BME280;60605;53.716;19.940;2023-02-21T07:22:52;98941.07;;;5.07;100.00
57900;BME280;60605;53.716;19.940;2023-02-21T07:27:56;98951.20;;;5.12;100.00
57900;BME280;60605;53.716;19.940;2023-02-21T07:32:59;98956.56;;;5.16;100.00
57900;BME280;60605;53.716;19.940;2023-02-21T07:38:02;98962.66;;;5.23;100.00
57900;BME280;60605;53.716;19.940;2023-02-21T07:43:06;98964.91;;;5.32;100.00
57900;BME280;60605;53.716;19.940;2023-02-21T07:48:09;98968.12;;;5.46;100.00
57900;BME280;60605;53.716;19.940;2023-02-21T07:53:16;98978.08;;;5.58;100.00
57900;BME280;60605;53.716;19.940;2023-02-21T07:58:19;98990.48;;;5.68;100.00
57900;BME280;60605;53.716;19.940;2023-02-21T08:03:23;98999.09;;;5.71;100.00
57900;BME280;60605;53.716;19.940;2023-02-21T08:08:26;99004.15;;;5.75;100.00
57900;BME280;60605;53.716;19.940;2023-02-21T08:13:30;99012.92;;;5.79;100.00
57900;BME280;60605;53.716;19.940;2023-02-21T08:18:35;99021.39;;;5.84;100.00
57900;BME280;60605;53.716;19.940;2023-02-21T08:23:38;99028.36;;;5.92;100.00
57900;BME280;60605;53.716;19.940;2023-02-21T08:28:42;99038.70;;;5.98;100.00
57900;BME280;60605;53.716;19.940;2023-02-21T08:33:45;99043.55;;;6.01;100.00
57900;BME280;60605;53.716;19.940;2023-02-21T08:38:48;99055.20;;;6.03;100.00
57900;BME280;60605;53.716;19.940;2023-02-21T08:43:52;99058.45;;;6.06;100.00
57900;BME280;60605;53.716;19.940;2023-02-21T08:48:56;99063.17;;;6.12;100.00
57900;BME280;60605;53.716;19.940;2023-02-21T08:54:00;99069.81;;;6.16;100.00
57900;BME280;60605;53.716;19.940;2023-02-21T08:59:04;99073.42;;;6.21;100.00
57900;BME280;60605;53.716;19.940;2023-02-21T09:04:08;99091.55;;;6.27;100.00
57900;BME280;60605;53.716;19.940;2023-02-21T09:09:11;99103.83;;;6.32;100.00
57900;BME280;60605;53.716;19.940;2023-02-21T09:14:14;99114.81;;;6.41;100.00
57900;BME280;60605;53.716;19.940;2023-02-21T09:19:17;99117.98;;;6.53;100.00
57900;BME280;60605;53.716;19.940;2023-02-21T09:24:24;99125.63;;;6.70;100.00
57900;BME280;60605;53.716;19.940;2023-02-21T09:29:32;99135.98;;;6.91;100.00
57900;BME280;60605;53.716;19.940;2023-02-21T09:34:48;99137.65;;;7.08;100.00
57900;BME280;60605;53.716;19.940;2023-02-21T09:39:51;99147.95;;;7.23;100.00
57900;BME280;60605;53.716;19.940;2023-02-21T09:44:55;99155.40;;;7.35;100.00
57900;BME280;60605;53.716;19.940;2023-02-21T09:49:59;99169.27;;;7.45;100.00
57900;BME280;60605;53.716;19.940;2023-02-21T10:00:17;99186.96;;;7.61;100.00
57900;BME280;60605;53.716;19.940;2023-02-21T10:05:32;99195.02;;;7.65;100.00
57900;BME280;60605;53.716;19.940;2023-02-21T10:10:55;99200.81;;;7.72;100.00
57900;BME280;60605;53.716;19.940;2023-02-21T10:16:24;99207.61;;;7.82;100.00
57900;BME280;60605;53.716;19.940;2023-02-21T10:21:34;99213.05;;;7.84;99.48
57900;BME280;60605;53.716;19.940;2023-02-21T10:26:39;99218.17;;;7.89;99.02
57900;BME280;60605;53.716;19.940;2023-02-21T10:31:45;99224.40;;;7.93;98.08
57900;BME280;60605;53.716;19.940;2023-02-21T10:36:49;99228.90;;;7.94;97.71
57900;BME280;60605;53.716;19.940;2023-02-21T10:41:54;99236.36;;;8.06;97.25
57900;BME280;60605;53.716;19.940;2023-02-21T10:52:40;99242.84;;;8.22;95.14
57900;BME280;60605;53.716;19.940;2023-02-21T10:57:52;99257.29;;;8.23;93.28
57900;BME280;60605;53.716;19.940;2023-02-21T11:03:02;99261.58;;;8.29;93.15
57900;BME280;60605;53.716;19.940;2023-02-21T11:08:09;99268.66;;;8.40;92.26
57900;BME280;60605;53.716;19.940;2023-02-21T11:13:16;99276.69;;;8.38;91.55
57900;BME280;60605;53.716;19.940;2023-02-21T11:18:24;99283.20;;;8.38;91.52
57900;BME280;60605;53.716;19.940;2023-02-21T11:23:30;99290.75;;;8.34;90.89
57900;BME280;60605;53.716;19.940;2023-02-21T11:28:38;99302.83;;;8.31;91.00
57900;BME280;60605;53.716;19.940;2023-02-21T11:33:54;99312.98;;;8.26;90.63
57900;BME280;60605;53.716;19.940;2023-02-21T11:39:06;99316.74;;;8.17;90.35
57900;BME280;60605;53.716;19.940;2023-02-21T11:44:36;99317.95;;;8.09;90.17
57900;BME280;60605;53.716;19.940;2023-02-21T11:55:18;99333.19;;;8.06;90.18
57900;BME280;60605;53.716;19.940;2023-02-21T12:05:41;99338.61;;;8.21;90.51
57900;BME280;60605;53.716;19.940;2023-02-21T12:16:29;99344.67;;;8.36;89.58
57900;BME280;60605;53.716;19.940;2023-02-21T12:27:06;99353.63;;;8.50;88.29
57900;BME280;60605;53.716;19.940;2023-02-21T12:32:50;99356.48;;;8.55;87.96
57900;BME280;60605;53.716;19.940;2023-02-21T12:48:54;99366.84;;;8.69;87.52
57900;BME280;60605;53.716;19.940;2023-02-21T13:04:44;99383.99;;;9.10;87.42
57900;BME280;60605;53.716;19.940;2023-02-21T13:15:23;99392.52;;;9.11;87.61
57900;BME280;60605;53.716;19.940;2023-02-21T13:20:28;99397.73;;;8.88;88.93
57900;BME280;60605;53.716;19.940;2023-02-21T13:30:39;99406.36;;;8.63;91.00
57900;BME280;60605;53.716;19.940;2023-02-21T13:35:43;99416.76;;;8.52;91.88
57900;BME280;60605;53.716;19.940;2023-02-21T13:45:54;99428.96;;;8.48;92.68
57900;BME280;60605;53.716;19.940;2023-02-21T13:50:59;99440.06;;;8.41;92.93
57900;BME280;60605;53.716;19.940;2023-02-21T14:06:39;99457.91;;;8.17;93.12
57900;BME280;60605;53.716;19.940;2023-02-21T14:12:01;99466.90;;;8.15;93.38
57900;BME280;60605;53.716;19.940;2023-02-21T14:17:10;99474.33;;;8.14;92.84
57900;BME280;60605;53.716;19.940;2023-02-21T14:22:28;99479.92;;;8.08;92.00
57900;BME280;60605;53.716;19.940;2023-02-21T14:27:36;99485.00;;;8.04;91.91
57900;BME280;60605;53.716;19.940;2023-02-21T14:38:05;99494.54;;;7.94;91.18
57900;BME280;60605;53.716;19.940;2023-02-21T15:00:28;99517.11;;;7.64;91.48
57900;BME280;60605;53.716;19.940;2023-02-21T15:10:59;99527.60;;;7.47;91.85
57900;BME280;60605;53.716;19.940;2023-02-21T15:16:06;99536.73;;;7.39;91.89
57900;BME280;60605;53.716;19.940;2023-02-21T15:26:23;99550.69;;;7.25;92.37
57900;BME280;60605;53.716;19.940;2023-02-21T15:31:27;99555.12;;;7.18;92.67
57900;BME280;60605;53.716;19.940;2023-02-21T15:36:31;99553.95;;;7.11;93.05
57900;BME280;60605;53.716;19.940;2023-02-21T15:41:42;99558.74;;;7.06;93.56
57900;BME280;60605;53.716;19.940;2023-02-21T15:46:53;99570.09;;;7.01;94.12
57900;BME280;60605;53.716;19.940;2023-02-21T15:52:00;99583.80;;;6.95;94.57
57900;BME280;60605;53.716;19.940;2023-02-21T15:57:14;99594.27;;;6.90;95.16
57900;BME280;60605;53.716;19.940;2023-02-21T16:02:22;99606.77;;;6.80;97.07
57900;BME280;60605;53.716;19.940;2023-02-21T16:07:33;99618.94;;;6.60;99.18
57900;BME280;60605;53.716;19.940;2023-02-21T16:12:43;99630.64;;;6.38;99.92
57900;BME280;60605;53.716;19.940;2023-02-21T16:17:55;99633.98;;;6.17;100.00
57900;BME280;60605;53.716;19.940;2023-02-21T16:28:37;99657.06;;;5.82;100.00
57900;BME280;60605;53.716;19.940;2023-02-21T16:33:41;99666.35;;;5.69;100.00
57900;BME280;60605;53.716;19.940;2023-02-21T16:38:44;99676.98;;;5.60;100.00
57900;BME280;60605;53.716;19.940;2023-02-21T16:43:47;99686.22;;;5.51;100.00
57900;BME280;60605;53.716;19.940;2023-02-21T16:48:52;99695.17;;;5.44;100.00
57900;BME280;60605;53.716;19.940;2023-02-21T16:53:56;99701.91;;;5.38;100.00
57900;BME280;60605;53.716;19.940;2023-02-21T16:58:59;99709.04;;;5.33;100.00
57900;BME280;60605;53.716;19.940;2023-02-21T17:04:03;99716.30;;;5.27;100.00
57900;BME280;60605;53.716;19.940;2023-02-21T17:09:17;99722.90;;;5.17;100.00
57900;BME280;60605;53.716;19.940;2023-02-21T17:14:21;99727.33;;;5.07;100.00
57900;BME280;60605;53.716;19.940;2023-02-21T17:19:25;99733.97;;;4.95;100.00
57900;BME280;60605;53.716;19.940;2023-02-21T17:24:29;99743.68;;;4.81;100.00
57900;BME280;60605;53.716;19.940;2023-02-21T17:29:32;99752.66;;;4.65;100.00
57900;BME280;60605;53.716;19.940;2023-02-21T17:34:36;99763.65;;;4.50;100.00
57900;BME280;60605;53.716;19.940;2023-02-21T17:39:39;99776.27;;;4.39;100.00
57900;BME280;60605;53.716;19.940;2023-02-21T17:44:43;99775.98;;;4.32;100.00
57900;BME280;60605;53.716;19.940;2023-02-21T17:49:50;99784.43;;;4.28;100.00
57900;BME280;60605;53.716;19.940;2023-02-21T17:54:56;99792.60;;;4.28;100.00
57900;BME280;60605;53.716;19.940;2023-02-21T18:00:00;99795.76;;;4.28;100.00
57900;BME280;60605;53.716;19.940;2023-02-21T18:05:04;99803.84;;;4.26;100.00
57900;BME280;60605;53.716;19.940;2023-02-21T18:10:16;99818.23;;;4.23;100.00
57900;BME280;60605;53.716;19.940;2023-02-21T18:15:24;99826.38;;;4.23;100.00
57900;BME280;60605;53.716;19.940;2023-02-21T18:20:30;99834.02;;;4.25;100.00
57900;BME280;60605;53.716;19.940;2023-02-21T18:25:38;99837.41;;;4.26;100.00
57900;BME280;60605;53.716;19.940;2023-02-21T18:30:41;99843.02;;;4.29;100.00
57900;BME280;60605;53.716;19.940;2023-02-21T18:35:46;99845.59;;;4.30;100.00
57900;BME280;60605;53.716;19.940;2023-02-21T18:40:50;99859.13;;;4.29;100.00
57900;BME280;60605;53.716;19.940;2023-02-21T18:45:57;99870.02;;;4.26;100.00
57900;BME280;60605;53.716;19.940;2023-02-21T18:51:01;99878.41;;;4.22;100.00
57900;BME280;60605;53.716;19.940;2023-02-21T18:56:14;99879.93;;;4.23;100.00
57900;BME280;60605;53.716;19.940;2023-02-21T19:01:19;99879.69;;;4.26;100.00
57900;BME280;60605;53.716;19.940;2023-02-21T19:06:25;99888.51;;;4.24;100.00
57900;BME280;60605;53.716;19.940;2023-02-21T19:11:29;99898.30;;;4.19;100.00
57900;BME280;60605;53.716;19.940;2023-02-21T19:16:33;99901.44;;;4.11;100.00
57900;BME280;60605;53.716;19.940;2023-02-21T19:21:36;99906.64;;;4.05;100.00
57900;BME280;60605;53.716;19.940;2023-02-21T19:26:40;99915.02;;;4.02;100.00
57900;BME280;60605;53.716;19.940;2023-02-21T19:31:45;99916.70;;;3.99;100.00
57900;BME280;60605;53.716;19.940;2023-02-21T19:36:49;99933.77;;;3.97;100.00
57900;BME280;60605;53.716;19.940;2023-02-21T19:41:53;99944.98;;;3.94;100.00
57900;BME280;60605;53.716;19.940;2023-02-21T19:46:56;99947.09;;;3.90;100.00
57900;BME280;60605;53.716;19.940;2023-02-21T19:52:01;99961.56;;;3.83;100.00
57900;BME280;60605;53.716;19.940;2023-02-21T19:57:05;99965.15;;;3.80;100.00
57900;BME280;60605;53.716;19.940;2023-02-21T20:02:10;99974.70;;;3.82;100.00
57900;BME280;60605;53.716;19.940;2023-02-21T20:07:16;99983.67;;;3.85;100.00
57900;BME280;60605;53.716;19.940;2023-02-21T20:12:21;99988.28;;;3.85;100.00
57900;BME280;60605;53.716;19.940;2023-02-21T20:17:25;99988.32;;;3.78;100.00
57900;BME280;60605;53.716;19.940;2023-02-21T20:22:28;99995.80;;;3.63;100.00
57900;BME280;60605;53.716;19.940;2023-02-21T20:27:36;100001.72;;;3.43;100.00
57900;BME280;60605;53.716;19.940;2023-02-21T20:32:39;100013.34;;;3.22;100.00
57900;BME280;60605;53.716;19.940;2023-02-21T20:37:44;100016.50;;;3.06;100.00
57900;BME280;60605;53.716;19.940;2023-02-21T20:42:49;100018.73;;;2.97;100.00
57900;BME280;60605;53.716;19.940;2023-02-21T20:47:53;100020.23;;;2.93;100.00
57900;BME280;60605;53.716;19.940;2023-02-21T20:52:57;100021.59;;;2.92;100.00
57900;BME280;60605;53.716;19.940;2023-02-21T20:58:00;100028.86;;;2.86;100.00
57900;BME280;60605;53.716;19.940;2023-02-21T21:03:04;100035.44;;;2.81;100.00
57900;BME280;60605;53.716;19.940;2023-02-21T21:08:08;100042.90;;;2.78;100.00
57900;BME280;60605;53.716;19.940;2023-02-21T21:13:14;100055.90;;;2.83;100.00
57900;BME280;60605;53.716;19.940;2023-02-21T21:18:18;100061.45;;;2.94;100.00
57900;BME280;60605;53.716;19.940;2023-02-21T21:23:23;100066.77;;;3.06;100.00
57900;BME280;60605;53.716;19.940;2023-02-21T21:28:28;100077.26;;;3.14;100.00
57900;BME280;60605;53.716;19.940;2023-02-21T21:33:35;100083.12;;;3.14;100.00
57900;BME280;60605;53.716;19.940;2023-02-21T21:38:38;100089.22;;;3.05;100.00
57900;BME280;60605;53.716;19.940;2023-02-21T21:43:43;100095.02;;;2.91;100.00
57900;BME280;60605;53.716;19.940;2023-02-21T21:48:47;100097.98;;;2.77;100.00
57900;BME280;60605;53.716;19.940;2023-02-21T21:53:50;100101.02;;;2.61;100.00
57900;BME280;60605;53.716;19.940;2023-02-21T21:58:53;100109.34;;;2.48;100.00
57900;BME280;60605;53.716;19.940;2023-02-21T22:03:56;100117.32;;;2.40;100.00
57900;BME280;60605;53.716;19.940;2023-02-21T22:09:00;100128.94;;;2.38;100.00
57900;BME280;60605;53.716;19.940;2023-02-21T22:14:04;100140.83;;;2.41;100.00
57900;BME280;60605;53.716;19.940;2023-02-21T22:19:07;100149.77;;;2.47;100.00
57900;BME280;60605;53.716;19.940;2023-02-21T22:24:11;100154.95;;;2.54;100.00
57900;BME280;60605;53.716;19.940;2023-02-21T22:29:17;100167.53;;;2.60;100.00
57900;BME280;60605;53.716;19.940;2023-02-21T22:34:20;100173.65;;;2.66;100.00
57900;BME280;60605;53.716;19.940;2023-02-21T22:39:26;100178.95;;;2.66;100.00
57900;BME280;60605;53.716;19.940;2023-02-21T22:44:29;100181.08;;;2.61;100.00
57900;BME280;60605;53.716;19.940;2023-02-21T22:49:32;100188.83;;;2.56;100.00
57900;BME280;60605;53.716;19.940;2023-02-21T22:54:36;100191.79;;;2.51;100.00
57900;BME280;60605;53.716;19.940;2023-02-21T22:59:42;100194.83;;;2.46;100.00
57900;BME280;60605;53.716;19.940;2023-02-21T23:04:45;100198.39;;;2.40;100.00
57900;BME280;60605;53.716;19.940;2023-02-21T23:09:49;100203.74;;;2.37;100.00
57900;BME280;60605;53.716;19.940;2023-02-21T23:14:52;100211.83;;;2.34;100.00
57900;BME280;60605;53.716;19.940;2023-02-21T23:19:55;100215.92;;;2.31;100.00
57900;BME280;60605;53.716;19.940;2023-02-21T23:24:58;100224.23;;;2.28;100.00
57900;BME280;60605;53.716;19.940;2023-02-21T23:30:01;100231.80;;;2.22;100.00
57900;BME280;60605;53.716;19.940;2023-02-21T23:35:05;100240.19;;;2.16;100.00
57900;BME280;60605;53.716;19.940;2023-02-21T23:40:23;100248.49;;;2.07;100.00
57900;BME280;60605;53.716;19.940;2023-02-21T23:45:27;100255.24;;;1.99;100.00
57900;BME280;60605;53.716;19.940;2023-02-21T23:50:30;100268.26;;;1.94;100.00
57900;BME280;60605;53.716;19.940;2023-02-21T23:55:33;100274.10;;;1.90;100.00
